createdAt,value
2023-03-12T00:02:17.429Z,67.10
2023-03-12T00:04:43.887Z,67.20
2023-03-12T00:07:10.270Z,66.96
2023-03-12T00:09:38.402Z,66.39
2023-03-12T00:12:06.043Z,65.62
2023-03-12T00:14:33.030Z,66.06
2023-03-12T00:16:59.541Z,67.94
2023-03-12T00:19:26.031Z,67.66
2023-03-12T00:21:52.555Z,66.45
2023-03-12T00:24:19.203Z,67.01
2023-03-12T00:26:45.567Z,66.37
2023-03-12T00:29:11.978Z,65.36
2023-03-12T00:31:38.403Z,66.26
2023-03-12T00:34:04.896Z,66.08
2023-03-12T00:36:32.801Z,66.79
2023-03-12T00:39:00.982Z,67.73
2023-03-12T00:41:28.519Z,66.19
2023-03-12T00:43:54.893Z,66.75
2023-03-12T00:46:21.700Z,66.50
2023-03-12T00:48:48.198Z,66.22
2023-03-12T00:51:14.726Z,65.65
2023-03-12T00:53:41.134Z,65.36
2023-03-12T00:56:07.637Z,65.08
2023-03-12T00:58:34.039Z,65.58
2023-03-12T01:01:00.718Z,66.13
2023-03-12T01:03:27.701Z,65.96
2023-03-12T01:05:56.935Z,64.99
2023-03-12T01:08:23.925Z,65.60
2023-03-12T01:10:50.780Z,65.01
2023-03-12T01:13:17.426Z,64.71
2023-03-12T01:15:43.839Z,64.55
2023-03-12T01:18:10.301Z,65.83
2023-03-12T01:20:36.923Z,65.54
2023-03-12T01:23:03.720Z,65.17
2023-03-12T01:25:30.148Z,64.71
2023-03-12T01:27:56.599Z,63.58
2023-03-12T01:30:23.682Z,63.50
2023-03-12T01:32:51.984Z,63.13
2023-03-12T01:35:18.543Z,63.21
2023-03-12T01:37:44.973Z,62.60
2023-03-12T01:40:18.895Z,63.27
2023-03-12T01:43:11.887Z,63.20
2023-03-12T01:46:05.887Z,62.98
2023-03-12T01:48:39.674Z,63.58
2023-03-12T01:51:07.490Z,63.23
2023-03-12T01:53:34.487Z,63.30
2023-03-12T01:56:01.899Z,63.29
2023-03-12T01:58:32.644Z,63.62
2023-03-12T02:00:59.590Z,63.01
2023-03-12T02:03:26.117Z,63.00
2023-03-12T02:05:57.982Z,63.49
2023-03-12T02:08:27.246Z,64.18
2023-03-12T02:10:53.772Z,63.80
2023-03-12T02:13:20.374Z,63.40
2023-03-12T02:15:47.056Z,63.69
2023-03-12T02:18:18.000Z,63.72
2023-03-12T02:20:52.042Z,63.52
2023-03-12T02:23:52.098Z,64.10
2023-03-12T02:26:20.016Z,64.12
2023-03-12T02:28:47.353Z,63.33
2023-03-12T02:31:18.205Z,63.47
2023-03-12T02:33:44.584Z,63.65
2023-03-12T02:36:11.100Z,63.13
2023-03-12T02:38:46.969Z,63.51
2023-03-12T02:41:23.956Z,63.21
2023-03-12T02:44:13.374Z,63.42
2023-03-12T02:46:49.333Z,64.09
2023-03-12T02:49:16.896Z,63.53
2023-03-12T02:51:44.915Z,63.76
2023-03-12T02:54:12.571Z,63.41
2023-03-12T02:56:40.034Z,63.15
2023-03-12T02:59:08.039Z,64.13
2023-03-12T03:01:34.920Z,62.95
2023-03-12T03:04:03.131Z,63.09
2023-03-12T03:06:29.933Z,62.95
2023-03-12T03:08:56.449Z,63.39
2023-03-12T03:11:24.649Z,63.39
2023-03-12T03:13:52.251Z,64.00
2023-03-12T03:16:18.920Z,63.63
2023-03-12T03:18:45.378Z,62.95
2023-03-12T03:21:16.432Z,63.75
2023-03-12T03:23:45.448Z,63.79
2023-03-12T03:26:11.921Z,63.89
2023-03-12T03:28:38.279Z,64.70
2023-03-12T03:31:05.076Z,64.10
2023-03-12T03:33:34.559Z,64.21
2023-03-12T03:36:02.189Z,63.97
2023-03-12T03:38:30.663Z,64.19
2023-03-12T03:40:57.755Z,64.21
2023-03-12T03:43:24.875Z,63.89
2023-03-12T03:46:05.715Z,64.04
2023-03-12T03:48:32.931Z,63.68
2023-03-12T03:51:04.151Z,63.39
2023-03-12T03:53:31.527Z,62.95
2023-03-12T03:55:58.125Z,63.19
2023-03-12T03:58:24.573Z,63.66
2023-03-12T04:00:51.051Z,63.24
2023-03-12T04:03:17.474Z,63.29
2023-03-12T04:05:45.185Z,63.16
2023-03-12T04:08:13.268Z,63.27
2023-03-12T04:10:40.081Z,63.85
2023-03-12T04:13:06.610Z,62.88
2023-03-12T04:15:33.010Z,62.97
2023-03-12T04:17:59.479Z,62.92
2023-03-12T04:20:25.893Z,63.19
2023-03-12T04:22:52.270Z,63.71
2023-03-12T04:25:18.788Z,63.04
2023-03-12T04:27:45.166Z,63.33
2023-03-12T04:30:12.056Z,63.03
2023-03-12T04:32:38.501Z,62.86
2023-03-12T04:35:05.148Z,63.68
2023-03-12T04:37:33.877Z,62.83
2023-03-12T04:40:02.433Z,63.44
2023-03-12T04:42:28.867Z,63.01
2023-03-12T04:44:55.368Z,63.31
2023-03-12T04:47:21.721Z,63.20
2023-03-12T04:49:48.203Z,63.12
2023-03-12T04:52:14.680Z,63.31
2023-03-12T04:54:41.024Z,63.51
2023-03-12T04:57:07.450Z,63.40
2023-03-12T04:59:33.940Z,63.88
2023-03-12T05:02:00.318Z,63.83
2023-03-12T05:04:26.983Z,64.10
2023-03-12T05:06:53.349Z,64.27
2023-03-12T05:09:19.782Z,64.83
2023-03-12T05:11:46.319Z,64.86
2023-03-12T05:14:12.851Z,65.46
2023-03-12T05:16:39.325Z,66.12
2023-03-12T05:19:06.190Z,67.10
2023-03-12T05:21:33.200Z,67.67
2023-03-12T05:23:59.847Z,67.39
2023-03-12T05:26:28.875Z,68.08
2023-03-12T05:28:55.829Z,68.82
2023-03-12T05:31:22.270Z,69.64
2023-03-12T05:33:51.652Z,69.69
2023-03-12T05:36:19.744Z,69.97
2023-03-12T05:38:46.577Z,70.67
2023-03-12T05:41:25.842Z,70.76
2023-03-12T05:43:54.286Z,70.71
2023-03-12T05:46:20.963Z,71.06
2023-03-12T05:48:47.627Z,70.94
2023-03-12T05:51:14.366Z,71.01
2023-03-12T05:53:40.748Z,71.10
2023-03-12T05:56:11.473Z,71.57
2023-03-12T05:58:38.474Z,71.64
2023-03-12T06:01:22.324Z,71.81
2023-03-12T06:03:48.765Z,72.56
2023-03-12T06:06:15.854Z,73.06
2023-03-12T06:08:43.060Z,73.40
2023-03-12T06:11:09.644Z,73.71
2023-03-12T06:13:36.490Z,75.14
2023-03-12T06:16:04.495Z,75.83
2023-03-12T06:18:32.968Z,76.42
2023-03-12T06:21:16.932Z,76.76
2023-03-12T06:23:44.374Z,78.05
2023-03-12T06:26:12.105Z,79.24
2023-03-12T06:28:38.857Z,80.29
2023-03-12T06:31:06.377Z,82.60
2023-03-12T06:33:33.684Z,83.22
2023-03-12T06:36:02.609Z,83.78
2023-03-12T06:38:29.378Z,84.05
2023-03-12T06:41:00.458Z,84.32
2023-03-12T06:43:29.412Z,85.15
2023-03-12T06:45:57.317Z,85.66
2023-03-12T06:48:24.704Z,86.05
2023-03-12T06:50:51.645Z,85.76
2023-03-12T06:53:18.959Z,85.96
2023-03-12T06:55:45.977Z,86.66
2023-03-12T06:58:12.684Z,86.93
2023-03-12T07:00:39.150Z,87.35
2023-03-12T07:03:05.604Z,86.97
2023-03-12T07:05:32.019Z,87.03
2023-03-12T07:07:58.388Z,86.81
2023-03-12T07:10:28.069Z,87.00
2023-03-12T07:12:55.303Z,86.69
2023-03-12T07:15:22.518Z,86.26
2023-03-12T07:17:49.021Z,86.54
2023-03-12T07:20:15.402Z,85.89
2023-03-12T07:22:41.760Z,86.27
2023-03-12T07:25:09.544Z,85.79
2023-03-12T07:27:35.904Z,85.25
2023-03-12T07:30:02.430Z,85.39
2023-03-12T07:32:28.955Z,85.08
2023-03-12T07:34:55.292Z,84.63
2023-03-12T07:37:21.838Z,84.72
2023-03-12T07:39:52.153Z,84.39
2023-03-12T07:42:18.611Z,84.87
2023-03-12T07:44:44.972Z,84.64
2023-03-12T07:47:23.092Z,84.54
2023-03-12T07:49:50.770Z,84.57
2023-03-12T07:52:18.244Z,84.11
2023-03-12T07:54:44.836Z,84.22
2023-03-12T07:57:11.512Z,84.11
2023-03-12T07:59:38.035Z,83.76
2023-03-12T08:02:04.594Z,83.79
2023-03-12T08:04:31.180Z,84.32
2023-03-12T08:06:57.611Z,84.18
2023-03-12T08:09:23.966Z,84.34
2023-03-12T08:11:50.409Z,84.36
2023-03-12T08:14:16.842Z,83.80
2023-03-12T08:16:43.321Z,84.09
2023-03-12T08:19:09.778Z,84.29
2023-03-12T08:21:36.146Z,84.20
2023-03-12T08:24:02.610Z,83.83
2023-03-12T08:26:29.037Z,83.93
2023-03-12T08:28:56.785Z,84.03
2023-03-12T08:31:23.336Z,84.78
2023-03-12T08:33:49.707Z,84.28
2023-03-12T08:36:16.074Z,85.76
2023-03-12T08:38:42.485Z,86.63
2023-03-12T08:41:08.917Z,87.71
2023-03-12T08:43:35.303Z,88.81
2023-03-12T08:46:03.161Z,89.26
2023-03-12T08:48:31.409Z,90.33
2023-03-12T08:50:59.922Z,91.17
2023-03-12T08:53:27.561Z,92.43
2023-03-12T08:55:55.058Z,92.20
2023-03-12T08:58:23.084Z,93.40
2023-03-12T09:00:49.530Z,93.20
2023-03-12T09:03:16.598Z,93.57
2023-03-12T09:05:43.896Z,94.92
2023-03-12T09:08:11.604Z,95.14
2023-03-12T09:10:38.974Z,95.25
2023-03-12T09:13:06.264Z,95.67
2023-03-12T09:15:33.486Z,96.36
2023-03-12T09:17:59.872Z,96.49
2023-03-12T09:20:26.351Z,96.45
2023-03-12T09:22:52.842Z,97.32
2023-03-12T09:25:19.453Z,97.31
2023-03-12T09:27:48.015Z,97.92
2023-03-12T09:30:20.562Z,97.94
2023-03-12T09:32:47.331Z,98.48
2023-03-12T09:35:15.873Z,98.69
2023-03-12T09:37:42.727Z,98.51
2023-03-12T09:40:17.968Z,99.25
2023-03-12T09:42:47.870Z,99.56
2023-03-12T09:45:22.239Z,100.00
2023-03-12T09:47:54.135Z,100.00
2023-03-12T09:50:28.323Z,100.00
2023-03-12T09:52:59.623Z,100.00
2023-03-12T09:55:28.700Z,100.00
2023-03-12T09:57:56.345Z,100.00
2023-03-12T10:00:27.010Z,100.00
2023-03-12T10:03:09.890Z,100.00
2023-03-12T10:06:11.243Z,100.00
2023-03-12T10:09:02.817Z,100.00
2023-03-12T10:11:37.233Z,100.00
2023-03-12T10:14:24.141Z,100.00
2023-03-12T10:17:03.163Z,100.00
2023-03-12T10:19:54.187Z,100.00
2023-03-12T10:22:42.159Z,100.00
2023-03-12T10:25:08.484Z,100.00
2023-03-12T10:27:37.171Z,100.00
2023-03-12T10:30:15.020Z,100.00
2023-03-12T10:32:46.717Z,100.00
2023-03-12T10:35:21.524Z,100.00
2023-03-12T10:37:56.131Z,100.00
2023-03-12T10:40:25.484Z,100.00
2023-03-12T10:42:52.793Z,100.00
2023-03-12T10:45:34.966Z,100.00
2023-03-12T10:48:11.599Z,100.00
2023-03-12T10:50:40.097Z,100.00
2023-03-12T10:53:29.621Z,100.00
2023-03-12T10:56:01.793Z,100.00
2023-03-12T10:58:33.749Z,100.00
2023-03-12T11:01:02.287Z,100.00
2023-03-12T11:03:29.761Z,100.00
2023-03-12T11:06:02.250Z,100.00
2023-03-12T11:08:35.257Z,100.00
2023-03-12T11:11:03.666Z,100.00
2023-03-12T11:13:39.077Z,100.00
2023-03-12T11:16:17.937Z,100.00
2023-03-12T11:19:01.425Z,100.00
2023-03-12T11:21:29.094Z,100.00
2023-03-12T11:23:58.275Z,100.00
2023-03-12T11:26:31.873Z,100.00
2023-03-12T11:29:10.932Z,100.00
2023-03-12T11:31:57.983Z,100.00
2023-03-12T11:34:31.207Z,100.00
2023-03-12T11:37:07.610Z,100.00
2023-03-12T11:39:42.122Z,100.00
2023-03-12T11:42:36.375Z,100.00
2023-03-12T11:45:04.061Z,100.00
2023-03-12T11:47:49.482Z,100.00
2023-03-12T11:50:36.651Z,100.00
2023-03-12T11:53:14.290Z,100.00
2023-03-12T11:56:05.561Z,100.00
2023-03-12T11:58:50.206Z,100.00
2023-03-12T12:01:51.126Z,100.00
2023-03-12T12:04:29.963Z,100.00
2023-03-12T12:07:24.528Z,100.00
2023-03-12T12:09:59.048Z,100.00
2023-03-12T12:12:43.784Z,100.00
2023-03-12T12:15:35.246Z,100.00
2023-03-12T12:18:36.092Z,100.00
2023-03-12T12:21:19.769Z,100.00
2023-03-12T12:23:58.505Z,100.00
2023-03-12T12:26:37.842Z,100.00
2023-03-12T12:29:12.256Z,100.00
2023-03-12T12:31:54.123Z,100.00
2023-03-12T12:34:31.502Z,100.00
2023-03-12T12:37:26.015Z,100.00
2023-03-12T12:40:21.046Z,100.00
2023-03-12T12:42:55.251Z,100.00
2023-03-12T12:45:25.452Z,100.00
2023-03-12T12:48:11.564Z,100.00
2023-03-12T12:50:39.997Z,100.00
2023-03-12T12:53:21.345Z,100.00
2023-03-12T12:56:25.919Z,100.00
2023-03-12T12:59:34.011Z,100.00
2023-03-12T13:02:03.313Z,100.00
2023-03-12T13:04:38.793Z,100.00
2023-03-12T13:07:20.597Z,100.00
2023-03-12T13:09:52.957Z,100.00
2023-03-12T13:12:34.763Z,100.00
2023-03-12T13:15:02.783Z,100.00
2023-03-12T13:17:30.895Z,100.00
2023-03-12T13:20:13.451Z,100.00
2023-03-12T13:22:58.159Z,100.00
2023-03-12T13:25:29.554Z,100.00
2023-03-12T13:28:16.021Z,100.00
2023-03-12T13:30:48.793Z,100.00
2023-03-12T13:33:18.355Z,100.00
2023-03-12T13:36:03.945Z,100.00
2023-03-12T13:38:57.868Z,100.00
2023-03-12T13:41:46.879Z,100.00
2023-03-12T13:44:38.447Z,100.00
2023-03-12T13:47:10.896Z,100.00
2023-03-12T13:50:00.053Z,100.00
2023-03-12T13:53:02.000Z,100.00
2023-03-12T13:55:30.798Z,100.00
2023-03-12T13:58:16.781Z,100.00
2023-03-12T14:00:49.383Z,99.41
2023-03-12T14:03:26.245Z,98.45
2023-03-12T14:06:07.120Z,97.74
2023-03-12T14:09:03.438Z,98.03
2023-03-12T14:12:07.510Z,98.38
2023-03-12T14:15:04.454Z,97.01
2023-03-12T14:17:34.182Z,95.55
2023-03-12T14:20:04.550Z,94.96
2023-03-12T14:22:37.491Z,93.29
2023-03-12T14:25:14.876Z,92.30
2023-03-12T14:27:44.612Z,92.07
2023-03-12T14:30:23.385Z,91.44
2023-03-12T14:32:54.894Z,90.98
2023-03-12T14:35:47.231Z,89.00
2023-03-12T14:38:20.277Z,87.24
2023-03-12T14:41:02.050Z,88.06
2023-03-12T14:43:31.023Z,87.44
2023-03-12T14:46:03.659Z,85.08
2023-03-12T14:48:36.279Z,85.19
2023-03-12T14:51:05.578Z,85.62
2023-03-12T14:53:37.698Z,85.14
2023-03-12T14:56:13.235Z,85.44
2023-03-12T14:58:48.166Z,84.91
2023-03-12T15:01:19.757Z,84.26
2023-03-12T15:03:50.116Z,83.57
2023-03-12T15:06:51.647Z,83.66
2023-03-12T15:09:22.272Z,81.87
2023-03-12T15:11:58.638Z,81.17
2023-03-12T15:14:28.283Z,81.10
2023-03-12T15:16:55.998Z,80.56
2023-03-12T15:19:31.291Z,80.31
2023-03-12T15:21:58.487Z,80.77
2023-03-12T15:24:25.825Z,79.58
2023-03-12T15:26:52.239Z,79.04
2023-03-12T15:29:27.358Z,78.25
2023-03-12T15:31:59.238Z,77.88
2023-03-12T15:34:39.273Z,78.12
2023-03-12T15:37:38.647Z,77.61
2023-03-12T15:40:20.880Z,78.33
2023-03-12T15:42:48.695Z,79.71
2023-03-12T15:45:26.280Z,79.43
2023-03-12T15:47:54.425Z,79.78
2023-03-12T15:50:31.793Z,80.27
2023-03-12T15:53:07.106Z,79.27
2023-03-12T15:55:35.681Z,78.74
2023-03-12T15:58:02.976Z,78.12
2023-03-12T16:00:29.416Z,76.66
2023-03-12T16:03:02.439Z,76.18
2023-03-12T16:05:35.404Z,75.64
2023-03-12T16:08:12.782Z,76.27
2023-03-12T16:10:39.373Z,76.93
2023-03-12T16:13:05.815Z,75.99
2023-03-12T16:15:36.341Z,75.56
2023-03-12T16:18:02.917Z,75.92
2023-03-12T16:20:29.645Z,74.62
2023-03-12T16:22:56.278Z,74.08
2023-03-12T16:25:23.732Z,74.35
2023-03-12T16:27:54.738Z,73.31
2023-03-12T16:30:27.236Z,74.44
2023-03-12T16:32:53.769Z,74.71
2023-03-12T16:35:20.944Z,74.23
2023-03-12T16:37:47.485Z,73.25
2023-03-12T16:40:24.021Z,72.85
2023-03-12T16:43:02.425Z,73.30
2023-03-12T16:45:30.242Z,73.21
2023-03-12T16:48:02.746Z,73.29
2023-03-12T16:50:29.470Z,74.02
2023-03-12T16:52:56.646Z,73.75
2023-03-12T16:55:27.525Z,73.28
2023-03-12T16:58:00.310Z,73.14
2023-03-12T17:00:32.960Z,74.57
2023-03-12T17:02:59.496Z,74.02
2023-03-12T17:05:28.933Z,73.98
2023-03-12T17:07:56.261Z,74.60
2023-03-12T17:10:24.234Z,74.49
2023-03-12T17:12:51.691Z,75.03
2023-03-12T17:15:25.884Z,74.99
2023-03-12T17:17:54.778Z,74.63
2023-03-12T17:20:23.638Z,74.82
2023-03-12T17:22:50.029Z,75.33
2023-03-12T17:25:29.340Z,76.06
2023-03-12T17:27:59.115Z,75.78
2023-03-12T17:30:27.388Z,75.23
2023-03-12T17:32:59.981Z,75.43
2023-03-12T17:35:26.410Z,76.32
2023-03-12T17:37:52.789Z,75.96
2023-03-12T17:40:19.331Z,76.18
2023-03-12T17:42:45.751Z,76.06
2023-03-12T17:45:12.154Z,76.76
2023-03-12T17:47:38.614Z,76.06
2023-03-12T17:50:06.563Z,76.32
2023-03-12T17:52:33.901Z,76.51
2023-03-12T17:55:01.112Z,77.05
2023-03-12T17:57:28.022Z,76.81
2023-03-12T17:59:54.394Z,76.90
2023-03-12T18:02:21.304Z,76.85
2023-03-12T18:04:47.771Z,77.11
2023-03-12T18:07:14.389Z,77.04
2023-03-12T18:09:40.805Z,77.14
2023-03-12T18:12:07.559Z,77.30
2023-03-12T18:14:34.030Z,77.59
2023-03-12T18:17:00.417Z,77.35
2023-03-12T18:19:30.488Z,77.16
2023-03-12T18:21:56.931Z,77.65
2023-03-12T18:24:23.294Z,78.05
2023-03-12T18:26:51.506Z,77.43
2023-03-12T18:29:18.072Z,78.41
2023-03-12T18:31:44.501Z,78.11
2023-03-12T18:34:10.931Z,77.95
2023-03-12T18:36:37.327Z,78.02
2023-03-12T18:39:04.874Z,78.82
2023-03-12T18:41:32.779Z,78.92
2023-03-12T18:44:00.285Z,78.63
2023-03-12T18:46:27.139Z,79.50
2023-03-12T18:48:53.779Z,78.93
2023-03-12T18:51:20.347Z,79.42
2023-03-12T18:53:46.817Z,79.43
2023-03-12T18:56:13.638Z,79.51
2023-03-12T18:58:40.003Z,78.90
2023-03-12T19:01:06.416Z,79.35
2023-03-12T19:03:36.117Z,79.45
2023-03-12T19:06:03.692Z,79.32
2023-03-12T19:08:30.142Z,79.27
2023-03-12T19:10:56.532Z,79.23
2023-03-12T19:13:23.240Z,79.76
2023-03-12T19:15:49.699Z,79.40
2023-03-12T19:18:16.150Z,80.06
2023-03-12T19:20:42.531Z,79.90
2023-03-12T19:23:09.246Z,79.67
2023-03-12T19:25:35.662Z,79.93
2023-03-12T19:28:02.037Z,79.99
2023-03-12T19:30:30.549Z,79.78
2023-03-12T19:32:56.993Z,79.79
2023-03-12T19:35:23.455Z,80.35
2023-03-12T19:37:49.793Z,79.86
2023-03-12T19:40:16.349Z,80.20
2023-03-12T19:42:42.740Z,80.40
2023-03-12T19:45:10.190Z,80.45
2023-03-12T19:47:36.676Z,79.98
2023-03-12T19:50:03.351Z,80.34
2023-03-12T19:52:29.964Z,80.03
2023-03-12T19:55:04.338Z,79.93
2023-03-12T19:57:31.965Z,79.62
2023-03-12T19:59:58.851Z,79.54
2023-03-12T20:02:25.996Z,79.50
2023-03-12T20:04:52.584Z,79.64
2023-03-12T20:07:19.012Z,79.79
2023-03-12T20:09:45.562Z,79.24
2023-03-12T20:12:12.072Z,79.44
2023-03-12T20:14:39.845Z,78.77
2023-03-12T20:17:07.774Z,79.33
2023-03-12T20:19:34.170Z,78.93
2023-03-12T20:22:00.598Z,78.95
2023-03-12T20:24:26.996Z,79.41
2023-03-12T20:26:53.406Z,79.02
2023-03-12T20:29:19.757Z,79.25
2023-03-12T20:31:46.221Z,79.08
2023-03-12T20:34:12.725Z,78.90
2023-03-12T20:36:39.103Z,78.86
2023-03-12T20:39:05.549Z,78.99
2023-03-12T20:41:33.102Z,78.71
2023-03-12T20:43:59.843Z,78.49
2023-03-12T20:46:26.561Z,78.69
2023-03-12T20:48:54.993Z,79.01
2023-03-12T20:51:22.691Z,78.92
2023-03-12T20:53:49.068Z,79.26
2023-03-12T20:56:15.490Z,78.82
2023-03-12T20:58:41.994Z,78.85
2023-03-12T21:01:08.541Z,79.02
2023-03-12T21:03:34.919Z,78.57
2023-03-12T21:06:02.521Z,78.11
2023-03-12T21:08:29.894Z,77.96
2023-03-12T21:10:56.595Z,77.91
2023-03-12T21:13:23.881Z,78.11
2023-03-12T21:15:50.745Z,78.36
2023-03-12T21:18:17.817Z,78.37
2023-03-12T21:20:44.515Z,78.02
2023-03-12T21:23:11.615Z,78.33
2023-03-12T21:25:40.077Z,78.40
2023-03-12T21:28:08.560Z,78.39
2023-03-12T21:30:35.309Z,78.05
2023-03-12T21:33:03.750Z,78.69
2023-03-12T21:35:30.170Z,78.70
2023-03-12T21:37:56.742Z,78.78
2023-03-12T21:40:23.725Z,78.86
2023-03-12T21:42:50.537Z,78.90
2023-03-12T21:45:17.023Z,79.10
2023-03-12T21:47:43.502Z,79.14
2023-03-12T21:50:10.882Z,78.99
2023-03-12T21:52:42.913Z,79.47
2023-03-12T21:55:10.347Z,79.06
2023-03-12T21:57:36.761Z,79.40
2023-03-12T22:00:04.352Z,78.96
2023-03-12T22:02:31.606Z,78.97
2023-03-12T22:05:01.195Z,78.78
2023-03-12T22:07:30.269Z,78.83
2023-03-12T22:09:57.024Z,79.17
2023-03-12T22:12:23.430Z,79.00
2023-03-12T22:14:49.773Z,79.33
2023-03-12T22:17:17.069Z,78.94
2023-03-12T22:19:43.512Z,79.07
2023-03-12T22:22:11.302Z,79.22
2023-03-12T22:24:37.719Z,78.88
2023-03-12T22:27:07.219Z,79.36
2023-03-12T22:29:34.658Z,79.25
2023-03-12T22:32:01.198Z,78.99
2023-03-12T22:34:29.410Z,79.01
2023-03-12T22:36:55.817Z,79.15
2023-03-12T22:39:22.317Z,79.47
2023-03-12T22:41:53.504Z,79.20
2023-03-12T22:44:19.959Z,79.10
2023-03-12T22:46:46.456Z,79.38
2023-03-12T22:49:12.925Z,79.00
2023-03-12T22:51:39.305Z,79.23
2023-03-12T22:54:05.785Z,79.33
2023-03-12T22:56:32.554Z,79.48
2023-03-12T22:58:58.976Z,79.21
2023-03-12T23:01:25.584Z,79.45
2023-03-12T23:03:52.024Z,79.20
2023-03-12T23:06:21.277Z,79.18
2023-03-12T23:08:48.259Z,79.73
2023-03-12T23:11:15.326Z,79.59
2023-03-12T23:13:44.373Z,79.68
2023-03-12T23:16:13.827Z,80.06
2023-03-12T23:18:40.750Z,80.14
2023-03-12T23:21:10.557Z,79.97
2023-03-12T23:23:39.463Z,80.03
2023-03-12T23:26:06.419Z,80.60
2023-03-12T23:28:32.848Z,80.42
2023-03-12T23:31:02.282Z,80.19
2023-03-12T23:33:29.837Z,80.22
2023-03-12T23:36:00.527Z,80.40
2023-03-12T23:38:27.817Z,80.53
2023-03-12T23:41:02.989Z,80.18
2023-03-12T23:43:29.285Z,80.61
2023-03-12T23:45:57.560Z,80.45
2023-03-12T23:48:25.427Z,80.61
2023-03-12T23:50:51.822Z,80.58
2023-03-12T23:53:18.276Z,80.59
2023-03-12T23:55:54.994Z,80.41
2023-03-12T23:58:21.602Z,80.55
